sensor_id;sensor_type;location;lat;lon;timestamp;P1;durP1;ratioP1;P2;durP2;ratioP2
38693;SDS011;24447;43.460;25.744;2024-03-25T00:00:20;3.88;;;2.40;;
38693;SDS011;24447;43.460;25.744;2024-03-25T00:02:50;5.32;;;1.70;;
38693;SDS011;24447;43.460;25.744;2024-03-25T00:05:16;5.35;;;2.10;;
38693;SDS011;24447;43.460;25.744;2024-03-25T00:10:13;4.88;;;2.38;;
38693;SDS011;24447;43.460;25.744;2024-03-25T00:12:39;4.72;;;2.20;;
38693;SDS011;24447;43.460;25.744;2024-03-25T00:15:05;4.65;;;2.42;;
38693;SDS011;24447;43.460;25.744;2024-03-25T00:17:32;4.40;;;1.73;;
38693;SDS011;24447;43.460;25.744;2024-03-25T00:19:58;4.70;;;1.88;;
38693;SDS011;24447;43.460;25.744;2024-03-25T00:22:24;5.93;;;1.83;;
38693;SDS011;24447;43.460;25.744;2024-03-25T00:24:50;7.15;;;2.00;;
38693;SDS011;24447;43.460;25.744;2024-03-25T00:27:17;6.50;;;2.50;;
38693;SDS011;24447;43.460;25.744;2024-03-25T00:29:43;3.28;;;1.90;;
38693;SDS011;24447;43.460;25.744;2024-03-25T00:32:10;2.83;;;1.67;;
38693;SDS011;24447;43.460;25.744;2024-03-25T00:34:36;6.22;;;1.75;;
38693;SDS011;24447;43.460;25.744;2024-03-25T00:37:02;1.88;;;1.67;;
38693;SDS011;24447;43.460;25.744;2024-03-25T00:39:29;6.43;;;2.00;;
38693;SDS011;24447;43.460;25.744;2024-03-25T00:41:59;3.83;;;1.77;;
38693;SDS011;24447;43.460;25.744;2024-03-25T00:44:25;5.53;;;2.65;;
38693;SDS011;24447;43.460;25.744;2024-03-25T00:46:51;7.28;;;1.73;;
38693;SDS011;24447;43.460;25.744;2024-03-25T00:49:17;3.90;;;2.15;;
38693;SDS011;24447;43.460;25.744;2024-03-25T00:51:43;2.97;;;1.75;;
38693;SDS011;24447;43.460;25.744;2024-03-25T00:54:09;6.65;;;1.58;;
38693;SDS011;24447;43.460;25.744;2024-03-25T00:56:35;4.43;;;2.25;;
38693;SDS011;24447;43.460;25.744;2024-03-25T00:59:01;3.80;;;1.83;;
38693;SDS011;24447;43.460;25.744;2024-03-25T01:01:30;3.28;;;1.85;;
38693;SDS011;24447;43.460;25.744;2024-03-25T01:03:56;3.58;;;1.77;;
38693;SDS011;24447;43.460;25.744;2024-03-25T01:06:23;3.83;;;1.92;;
38693;SDS011;24447;43.460;25.744;2024-03-25T01:08:49;4.53;;;2.28;;
38693;SDS011;24447;43.460;25.744;2024-03-25T01:11:16;3.00;;;1.48;;
38693;SDS011;24447;43.460;25.744;2024-03-25T01:13:42;1.75;;;1.20;;
38693;SDS011;24447;43.460;25.744;2024-03-25T01:16:08;2.47;;;1.65;;
38693;SDS011;24447;43.460;25.744;2024-03-25T01:18:34;7.82;;;2.72;;
38693;SDS011;24447;43.460;25.744;2024-03-25T01:21:00;11.07;;;2.55;;
38693;SDS011;24447;43.460;25.744;2024-03-25T01:23:26;4.10;;;2.10;;
38693;SDS011;24447;43.460;25.744;2024-03-25T01:25:52;5.28;;;1.83;;
38693;SDS011;24447;43.460;25.744;2024-03-25T01:28:18;3.72;;;1.92;;
38693;SDS011;24447;43.460;25.744;2024-03-25T01:30:44;7.53;;;2.85;;
38693;SDS011;24447;43.460;25.744;2024-03-25T01:33:10;3.00;;;1.58;;
38693;SDS011;24447;43.460;25.744;2024-03-25T01:35:36;4.22;;;1.95;;
38693;SDS011;24447;43.460;25.744;2024-03-25T01:38:02;3.58;;;1.50;;
38693;SDS011;24447;43.460;25.744;2024-03-25T01:40:28;4.93;;;1.77;;
38693;SDS011;24447;43.460;25.744;2024-03-25T01:42:58;3.92;;;1.63;;
38693;SDS011;24447;43.460;25.744;2024-03-25T01:45:24;3.03;;;2.10;;
38693;SDS011;24447;43.460;25.744;2024-03-25T01:47:51;3.05;;;1.98;;
38693;SDS011;24447;43.460;25.744;2024-03-25T01:50:18;7.95;;;2.50;;
38693;SDS011;24447;43.460;25.744;2024-03-25T01:52:44;3.45;;;1.60;;
38693;SDS011;24447;43.460;25.744;2024-03-25T01:55:11;3.75;;;2.28;;
38693;SDS011;24447;43.460;25.744;2024-03-25T01:57:40;5.38;;;1.92;;
38693;SDS011;24447;43.460;25.744;2024-03-25T02:00:06;9.20;;;2.20;;
38693;SDS011;24447;43.460;25.744;2024-03-25T02:02:32;5.65;;;2.38;;
38693;SDS011;24447;43.460;25.744;2024-03-25T02:05:00;6.28;;;2.33;;
38693;SDS011;24447;43.460;25.744;2024-03-25T02:07:27;5.45;;;2.95;;
38693;SDS011;24447;43.460;25.744;2024-03-25T02:09:53;6.88;;;3.13;;
38693;SDS011;24447;43.460;25.744;2024-03-25T02:12:20;8.52;;;2.55;;
38693;SDS011;24447;43.460;25.744;2024-03-25T02:14:46;6.43;;;1.98;;
38693;SDS011;24447;43.460;25.744;2024-03-25T02:17:12;6.10;;;2.13;;
38693;SDS011;24447;43.460;25.744;2024-03-25T02:19:38;3.67;;;2.22;;
38693;SDS011;24447;43.460;25.744;2024-03-25T02:22:05;6.43;;;2.72;;
38693;SDS011;24447;43.460;25.744;2024-03-25T02:24:31;8.52;;;3.33;;
38693;SDS011;24447;43.460;25.744;2024-03-25T02:26:58;5.47;;;2.97;;
38693;SDS011;24447;43.460;25.744;2024-03-25T02:29:32;6.50;;;2.95;;
38693;SDS011;24447;43.460;25.744;2024-03-25T02:31:59;7.22;;;2.72;;
38693;SDS011;24447;43.460;25.744;2024-03-25T02:34:25;7.43;;;3.28;;
38693;SDS011;24447;43.460;25.744;2024-03-25T02:36:51;2.65;;;2.00;;
38693;SDS011;24447;43.460;25.744;2024-03-25T02:39:17;2.08;;;1.80;;
38693;SDS011;24447;43.460;25.744;2024-03-25T02:41:43;4.32;;;2.63;;
38693;SDS011;24447;43.460;25.744;2024-03-25T02:44:09;2.90;;;1.65;;
38693;SDS011;24447;43.460;25.744;2024-03-25T02:46:35;3.85;;;2.22;;
38693;SDS011;24447;43.460;25.744;2024-03-25T02:49:01;3.08;;;2.13;;
38693;SDS011;24447;43.460;25.744;2024-03-25T02:51:27;4.32;;;2.03;;
38693;SDS011;24447;43.460;25.744;2024-03-25T02:53:53;3.95;;;2.08;;
38693;SDS011;24447;43.460;25.744;2024-03-25T02:56:18;9.18;;;2.03;;
38693;SDS011;24447;43.460;25.744;2024-03-25T02:58:44;4.28;;;1.95;;
38693;SDS011;24447;43.460;25.744;2024-03-25T03:01:10;6.18;;;1.92;;
38693;SDS011;24447;43.460;25.744;2024-03-25T03:03:36;5.80;;;2.13;;
38693;SDS011;24447;43.460;25.744;2024-03-25T03:06:02;4.15;;;2.00;;
38693;SDS011;24447;43.460;25.744;2024-03-25T03:08:28;5.35;;;2.03;;
38693;SDS011;24447;43.460;25.744;2024-03-25T03:10:54;5.70;;;2.92;;
38693;SDS011;24447;43.460;25.744;2024-03-25T03:13:20;7.90;;;3.10;;
38693;SDS011;24447;43.460;25.744;2024-03-25T03:15:46;6.32;;;2.83;;
38693;SDS011;24447;43.460;25.744;2024-03-25T03:18:12;8.07;;;3.03;;
38693;SDS011;24447;43.460;25.744;2024-03-25T03:20:38;9.68;;;3.13;;
38693;SDS011;24447;43.460;25.744;2024-03-25T03:23:04;9.98;;;2.30;;
38693;SDS011;24447;43.460;25.744;2024-03-25T03:25:30;6.68;;;2.47;;
38693;SDS011;24447;43.460;25.744;2024-03-25T03:27:56;8.57;;;3.65;;
38693;SDS011;24447;43.460;25.744;2024-03-25T03:30:22;9.02;;;3.88;;
38693;SDS011;24447;43.460;25.744;2024-03-25T03:32:48;11.63;;;3.63;;
38693;SDS011;24447;43.460;25.744;2024-03-25T03:35:13;12.65;;;4.05;;
38693;SDS011;24447;43.460;25.744;2024-03-25T03:37:39;8.00;;;3.03;;
38693;SDS011;24447;43.460;25.744;2024-03-25T03:40:05;9.50;;;3.80;;
38693;SDS011;24447;43.460;25.744;2024-03-25T03:42:32;5.63;;;2.80;;
38693;SDS011;24447;43.460;25.744;2024-03-25T03:44:58;7.88;;;3.70;;
38693;SDS011;24447;43.460;25.744;2024-03-25T03:47:24;7.03;;;2.67;;
38693;SDS011;24447;43.460;25.744;2024-03-25T03:49:50;7.10;;;2.83;;
38693;SDS011;24447;43.460;25.744;2024-03-25T03:52:16;8.77;;;4.15;;
38693;SDS011;24447;43.460;25.744;2024-03-25T03:54:41;4.47;;;2.90;;
38693;SDS011;24447;43.460;25.744;2024-03-25T03:57:08;5.03;;;2.58;;
38693;SDS011;24447;43.460;25.744;2024-03-25T03:59:33;7.50;;;2.72;;
38693;SDS011;24447;43.460;25.744;2024-03-25T04:01:59;6.70;;;3.97;;
38693;SDS011;24447;43.460;25.744;2024-03-25T04:04:25;19.30;;;6.57;;
38693;SDS011;24447;43.460;25.744;2024-03-25T04:06:51;15.70;;;4.22;;
38693;SDS011;24447;43.460;25.744;2024-03-25T04:09:17;9.45;;;3.97;;
38693;SDS011;24447;43.460;25.744;2024-03-25T04:11:43;17.90;;;6.63;;
38693;SDS011;24447;43.460;25.744;2024-03-25T04:14:10;22.20;;;6.75;;
38693;SDS011;24447;43.460;25.744;2024-03-25T04:16:36;40.63;;;14.50;;
38693;SDS011;24447;43.460;25.744;2024-03-25T04:19:02;22.90;;;8.20;;
38693;SDS011;24447;43.460;25.744;2024-03-25T04:21:28;13.10;;;4.57;;
38693;SDS011;24447;43.460;25.744;2024-03-25T04:23:55;11.88;;;3.95;;
38693;SDS011;24447;43.460;25.744;2024-03-25T04:26:20;18.98;;;6.78;;
38693;SDS011;24447;43.460;25.744;2024-03-25T04:28:46;12.10;;;4.28;;
38693;SDS011;24447;43.460;25.744;2024-03-25T04:31:12;9.75;;;4.32;;
38693;SDS011;24447;43.460;25.744;2024-03-25T04:33:38;12.60;;;5.18;;
38693;SDS011;24447;43.460;25.744;2024-03-25T04:36:04;11.30;;;4.65;;
38693;SDS011;24447;43.460;25.744;2024-03-25T04:38:30;14.75;;;4.75;;
38693;SDS011;24447;43.460;25.744;2024-03-25T04:40:56;11.05;;;4.53;;
38693;SDS011;24447;43.460;25.744;2024-03-25T04:43:22;9.43;;;4.55;;
38693;SDS011;24447;43.460;25.744;2024-03-25T04:45:48;11.18;;;5.13;;
38693;SDS011;24447;43.460;25.744;2024-03-25T04:48:14;20.58;;;6.75;;
38693;SDS011;24447;43.460;25.744;2024-03-25T04:50:40;16.33;;;7.20;;
38693;SDS011;24447;43.460;25.744;2024-03-25T04:53:05;11.70;;;4.47;;
38693;SDS011;24447;43.460;25.744;2024-03-25T04:55:31;12.98;;;4.63;;
38693;SDS011;24447;43.460;25.744;2024-03-25T04:57:57;16.88;;;5.03;;
38693;SDS011;24447;43.460;25.744;2024-03-25T05:00:23;18.58;;;7.38;;
38693;SDS011;24447;43.460;25.744;2024-03-25T05:02:49;21.15;;;7.32;;
38693;SDS011;24447;43.460;25.744;2024-03-25T05:05:15;18.40;;;7.57;;
38693;SDS011;24447;43.460;25.744;2024-03-25T05:07:41;15.35;;;5.40;;
38693;SDS011;24447;43.460;25.744;2024-03-25T05:10:07;20.63;;;7.97;;
38693;SDS011;24447;43.460;25.744;2024-03-25T05:12:32;17.90;;;5.93;;
38693;SDS011;24447;43.460;25.744;2024-03-25T05:14:58;16.90;;;5.97;;
38693;SDS011;24447;43.460;25.744;2024-03-25T05:17:24;18.17;;;6.85;;
38693;SDS011;24447;43.460;25.744;2024-03-25T05:19:50;21.63;;;6.63;;
38693;SDS011;24447;43.460;25.744;2024-03-25T05:22:16;23.55;;;9.93;;
38693;SDS011;24447;43.460;25.744;2024-03-25T05:24:42;29.75;;;11.52;;
38693;SDS011;24447;43.460;25.744;2024-03-25T05:27:08;27.38;;;10.80;;
38693;SDS011;24447;43.460;25.744;2024-03-25T05:29:34;25.25;;;9.23;;
38693;SDS011;24447;43.460;25.744;2024-03-25T05:32:00;29.20;;;12.02;;
38693;SDS011;24447;43.460;25.744;2024-03-25T05:34:27;22.17;;;8.85;;
38693;SDS011;24447;43.460;25.744;2024-03-25T05:36:53;46.13;;;18.02;;
38693;SDS011;24447;43.460;25.744;2024-03-25T05:39:20;26.48;;;9.35;;
38693;SDS011;24447;43.460;25.744;2024-03-25T05:41:46;17.58;;;5.90;;
38693;SDS011;24447;43.460;25.744;2024-03-25T05:44:13;15.35;;;4.82;;
38693;SDS011;24447;43.460;25.744;2024-03-25T05:46:39;19.80;;;6.25;;
38693;SDS011;24447;43.460;25.744;2024-03-25T05:49:05;16.85;;;6.03;;
38693;SDS011;24447;43.460;25.744;2024-03-25T05:51:31;14.93;;;5.10;;
38693;SDS011;24447;43.460;25.744;2024-03-25T05:54:01;11.80;;;4.28;;
38693;SDS011;24447;43.460;25.744;2024-03-25T05:56:27;21.88;;;6.57;;
38693;SDS011;24447;43.460;25.744;2024-03-25T05:58:59;12.52;;;5.18;;
38693;SDS011;24447;43.460;25.744;2024-03-25T06:01:26;19.53;;;5.70;;
38693;SDS011;24447;43.460;25.744;2024-03-25T06:03:52;15.02;;;5.10;;
38693;SDS011;24447;43.460;25.744;2024-03-25T06:06:18;15.43;;;6.28;;
38693;SDS011;24447;43.460;25.744;2024-03-25T06:08:44;18.23;;;5.60;;
38693;SDS011;24447;43.460;25.744;2024-03-25T06:11:10;17.45;;;5.55;;
38693;SDS011;24447;43.460;25.744;2024-03-25T06:13:36;19.55;;;6.75;;
38693;SDS011;24447;43.460;25.744;2024-03-25T06:16:02;20.13;;;8.80;;
38693;SDS011;24447;43.460;25.744;2024-03-25T06:18:28;20.73;;;8.07;;
38693;SDS011;24447;43.460;25.744;2024-03-25T06:20:54;24.38;;;9.52;;
38693;SDS011;24447;43.460;25.744;2024-03-25T06:23:27;24.27;;;8.75;;
38693;SDS011;24447;43.460;25.744;2024-03-25T06:25:54;24.85;;;9.27;;
38693;SDS011;24447;43.460;25.744;2024-03-25T06:28:21;27.48;;;9.07;;
38693;SDS011;24447;43.460;25.744;2024-03-25T06:30:47;27.50;;;9.82;;
38693;SDS011;24447;43.460;25.744;2024-03-25T06:33:34;23.67;;;9.00;;
38693;SDS011;24447;43.460;25.744;2024-03-25T06:36:19;23.38;;;8.65;;
38693;SDS011;24447;43.460;25.744;2024-03-25T06:38:45;22.13;;;8.10;;
38693;SDS011;24447;43.460;25.744;2024-03-25T06:41:11;21.17;;;9.00;;
38693;SDS011;24447;43.460;25.744;2024-03-25T06:43:37;27.63;;;8.82;;
38693;SDS011;24447;43.460;25.744;2024-03-25T06:46:04;23.42;;;9.93;;
38693;SDS011;24447;43.460;25.744;2024-03-25T06:48:30;26.05;;;8.13;;
38693;SDS011;24447;43.460;25.744;2024-03-25T06:50:57;25.15;;;8.63;;
38693;SDS011;24447;43.460;25.744;2024-03-25T06:53:23;26.83;;;8.88;;
38693;SDS011;24447;43.460;25.744;2024-03-25T06:55:53;27.10;;;9.88;;
38693;SDS011;24447;43.460;25.744;2024-03-25T06:58:19;23.55;;;9.27;;
38693;SDS011;24447;43.460;25.744;2024-03-25T07:00:46;28.00;;;10.15;;
38693;SDS011;24447;43.460;25.744;2024-03-25T07:03:13;25.92;;;10.02;;
38693;SDS011;24447;43.460;25.744;2024-03-25T07:05:40;23.58;;;8.65;;
38693;SDS011;24447;43.460;25.744;2024-03-25T07:08:06;22.65;;;9.63;;
38693;SDS011;24447;43.460;25.744;2024-03-25T07:10:32;28.55;;;10.93;;
38693;SDS011;24447;43.460;25.744;2024-03-25T07:12:58;35.35;;;10.63;;
38693;SDS011;24447;43.460;25.744;2024-03-25T07:15:23;21.95;;;8.80;;
38693;SDS011;24447;43.460;25.744;2024-03-25T07:17:49;21.85;;;9.15;;
38693;SDS011;24447;43.460;25.744;2024-03-25T07:20:15;29.50;;;9.05;;
38693;SDS011;24447;43.460;25.744;2024-03-25T07:22:41;31.33;;;10.80;;
38693;SDS011;24447;43.460;25.744;2024-03-25T07:25:07;24.95;;;10.05;;
38693;SDS011;24447;43.460;25.744;2024-03-25T07:27:34;23.33;;;9.07;;
38693;SDS011;24447;43.460;25.744;2024-03-25T07:30:00;22.13;;;7.20;;
38693;SDS011;24447;43.460;25.744;2024-03-25T07:32:26;14.57;;;6.65;;
38693;SDS011;24447;43.460;25.744;2024-03-25T07:34:52;13.80;;;5.65;;
38693;SDS011;24447;43.460;25.744;2024-03-25T07:37:18;7.55;;;3.47;;
38693;SDS011;24447;43.460;25.744;2024-03-25T07:39:45;7.05;;;2.75;;
38693;SDS011;24447;43.460;25.744;2024-03-25T07:42:11;4.78;;;2.13;;
38693;SDS011;24447;43.460;25.744;2024-03-25T07:44:37;4.20;;;2.45;;
38693;SDS011;24447;43.460;25.744;2024-03-25T07:47:03;8.27;;;2.38;;
38693;SDS011;24447;43.460;25.744;2024-03-25T07:49:30;6.28;;;2.67;;
38693;SDS011;24447;43.460;25.744;2024-03-25T07:51:56;4.70;;;2.33;;
38693;SDS011;24447;43.460;25.744;2024-03-25T07:54:22;7.53;;;2.90;;
38693;SDS011;24447;43.460;25.744;2024-03-25T07:56:48;11.77;;;3.90;;
38693;SDS011;24447;43.460;25.744;2024-03-25T07:59:14;5.80;;;2.35;;
38693;SDS011;24447;43.460;25.744;2024-03-25T08:01:40;26.40;;;8.63;;
38693;SDS011;24447;43.460;25.744;2024-03-25T08:04:06;20.33;;;5.85;;
38693;SDS011;24447;43.460;25.744;2024-03-25T08:06:33;8.45;;;3.83;;
38693;SDS011;24447;43.460;25.744;2024-03-25T08:08:59;18.60;;;6.88;;
38693;SDS011;24447;43.460;25.744;2024-03-25T08:11:25;14.63;;;5.63;;
38693;SDS011;24447;43.460;25.744;2024-03-25T08:13:52;13.77;;;5.97;;
38693;SDS011;24447;43.460;25.744;2024-03-25T08:16:18;6.90;;;3.20;;
38693;SDS011;24447;43.460;25.744;2024-03-25T08:18:45;4.97;;;3.00;;
38693;SDS011;24447;43.460;25.744;2024-03-25T08:21:11;7.45;;;3.47;;
38693;SDS011;24447;43.460;25.744;2024-03-25T08:23:36;7.07;;;2.80;;
38693;SDS011;24447;43.460;25.744;2024-03-25T08:26:02;4.15;;;2.20;;
38693;SDS011;24447;43.460;25.744;2024-03-25T08:28:28;5.72;;;2.88;;
38693;SDS011;24447;43.460;25.744;2024-03-25T08:30:54;3.72;;;2.35;;
38693;SDS011;24447;43.460;25.744;2024-03-25T08:33:20;6.63;;;2.15;;
38693;SDS011;24447;43.460;25.744;2024-03-25T08:35:46;5.80;;;2.22;;
38693;SDS011;24447;43.460;25.744;2024-03-25T08:38:12;6.10;;;2.55;;
38693;SDS011;24447;43.460;25.744;2024-03-25T08:40:38;6.20;;;2.50;;
38693;SDS011;24447;43.460;25.744;2024-03-25T08:43:05;5.15;;;2.40;;
38693;SDS011;24447;43.460;25.744;2024-03-25T08:45:31;11.32;;;4.28;;
38693;SDS011;24447;43.460;25.744;2024-03-25T08:47:58;11.50;;;3.78;;
38693;SDS011;24447;43.460;25.744;2024-03-25T08:50:23;3.30;;;1.33;;
38693;SDS011;24447;43.460;25.744;2024-03-25T08:52:49;1.33;;;1.10;;
38693;SDS011;24447;43.460;25.744;2024-03-25T08:55:15;1.45;;;1.17;;
38693;SDS011;24447;43.460;25.744;2024-03-25T08:57:41;4.15;;;1.90;;
38693;SDS011;24447;43.460;25.744;2024-03-25T09:00:07;1.52;;;1.20;;
38693;SDS011;24447;43.460;25.744;2024-03-25T09:02:35;2.92;;;1.48;;
38693;SDS011;24447;43.460;25.744;2024-03-25T09:05:02;4.95;;;2.75;;
38693;SDS011;24447;43.460;25.744;2024-03-25T09:07:30;2.60;;;1.77;;
38693;SDS011;24447;43.460;25.744;2024-03-25T09:09:59;1.00;;;0.90;;
38693;SDS011;24447;43.460;25.744;2024-03-25T09:12:43;2.17;;;1.52;;
38693;SDS011;24447;43.460;25.744;2024-03-25T09:15:09;3.65;;;1.70;;
38693;SDS011;24447;43.460;25.744;2024-03-25T09:17:36;8.77;;;2.80;;
38693;SDS011;24447;43.460;25.744;2024-03-25T09:20:02;2.65;;;1.35;;
38693;SDS011;24447;43.460;25.744;2024-03-25T09:22:45;2.95;;;1.55;;
38693;SDS011;24447;43.460;25.744;2024-03-25T09:25:15;1.00;;;0.40;;
38693;SDS011;24447;43.460;25.744;2024-03-25T09:27:47;3.13;;;1.00;;
38693;SDS011;24447;43.460;25.744;2024-03-25T09:30:14;1.75;;;0.73;;
38693;SDS011;24447;43.460;25.744;2024-03-25T09:32:40;0.52;;;0.52;;
38693;SDS011;24447;43.460;25.744;2024-03-25T09:35:08;1.27;;;1.23;;
38693;SDS011;24447;43.460;25.744;2024-03-25T09:37:34;2.08;;;1.35;;
38693;SDS011;24447;43.460;25.744;2024-03-25T09:40:00;5.60;;;3.05;;
38693;SDS011;24447;43.460;25.744;2024-03-25T09:42:27;14.60;;;4.40;;
38693;SDS011;24447;43.460;25.744;2024-03-25T09:44:59;7.57;;;2.72;;
38693;SDS011;24447;43.460;25.744;2024-03-25T09:47:25;11.50;;;4.50;;
38693;SDS011;24447;43.460;25.744;2024-03-25T09:49:51;17.88;;;6.60;;
38693;SDS011;24447;43.460;25.744;2024-03-25T09:52:20;10.48;;;4.32;;
38693;SDS011;24447;43.460;25.744;2024-03-25T09:54:46;4.35;;;1.95;;
38693;SDS011;24447;43.460;25.744;2024-03-25T09:57:12;1.02;;;0.93;;
38693;SDS011;24447;43.460;25.744;2024-03-25T09:59:39;2.42;;;1.08;;
38693;SDS011;24447;43.460;25.744;2024-03-25T10:02:05;3.33;;;2.05;;
38693;SDS011;24447;43.460;25.744;2024-03-25T10:04:31;1.45;;;1.30;;
38693;SDS011;24447;43.460;25.744;2024-03-25T10:06:57;2.80;;;1.52;;
38693;SDS011;24447;43.460;25.744;2024-03-25T10:09:23;3.05;;;1.35;;
38693;SDS011;24447;43.460;25.744;2024-03-25T10:11:50;1.55;;;1.13;;
38693;SDS011;24447;43.460;25.744;2024-03-25T10:14:16;2.25;;;0.95;;
38693;SDS011;24447;43.460;25.744;2024-03-25T10:16:44;4.03;;;2.22;;
38693;SDS011;24447;43.460;25.744;2024-03-25T10:19:10;2.03;;;1.08;;
38693;SDS011;24447;43.460;25.744;2024-03-25T10:21:35;1.08;;;1.00;;
38693;SDS011;24447;43.460;25.744;2024-03-25T10:24:04;7.03;;;2.30;;
38693;SDS011;24447;43.460;25.744;2024-03-25T10:26:31;11.20;;;4.70;;
38693;SDS011;24447;43.460;25.744;2024-03-25T10:29:04;11.20;;;4.03;;
38693;SDS011;24447;43.460;25.744;2024-03-25T10:31:35;5.75;;;1.60;;
38693;SDS011;24447;43.460;25.744;2024-03-25T10:34:01;8.35;;;2.75;;
38693;SDS011;24447;43.460;25.744;2024-03-25T10:36:27;5.40;;;2.55;;
38693;SDS011;24447;43.460;25.744;2024-03-25T10:38:57;6.50;;;2.35;;
38693;SDS011;24447;43.460;25.744;2024-03-25T10:41:27;4.60;;;2.72;;
38693;SDS011;24447;43.460;25.744;2024-03-25T10:43:54;13.70;;;4.88;;
38693;SDS011;24447;43.460;25.744;2024-03-25T10:46:20;9.63;;;3.33;;
38693;SDS011;24447;43.460;25.744;2024-03-25T10:49:13;7.55;;;3.40;;
38693;SDS011;24447;43.460;25.744;2024-03-25T10:51:36;3.58;;;1.40;;
38693;SDS011;24447;43.460;25.744;2024-03-25T10:54:03;1.13;;;1.02;;
38693;SDS011;24447;43.460;25.744;2024-03-25T10:56:29;2.80;;;2.22;;
38693;SDS011;24447;43.460;25.744;2024-03-25T10:58:55;17.58;;;4.93;;
38693;SDS011;24447;43.460;25.744;2024-03-25T11:01:22;19.40;;;5.53;;
38693;SDS011;24447;43.460;25.744;2024-03-25T11:03:48;5.75;;;2.22;;
38693;SDS011;24447;43.460;25.744;2024-03-25T11:06:14;3.22;;;1.70;;
38693;SDS011;24447;43.460;25.744;2024-03-25T11:08:41;4.57;;;2.38;;
38693;SDS011;24447;43.460;25.744;2024-03-25T11:11:12;5.88;;;2.47;;
38693;SDS011;24447;43.460;25.744;2024-03-25T11:13:38;9.80;;;3.38;;
38693;SDS011;24447;43.460;25.744;2024-03-25T11:16:05;6.75;;;2.75;;
38693;SDS011;24447;43.460;25.744;2024-03-25T11:18:37;15.57;;;5.03;;
38693;SDS011;24447;43.460;25.744;2024-03-25T11:21:03;9.73;;;2.90;;
38693;SDS011;24447;43.460;25.744;2024-03-25T11:23:43;10.05;;;4.72;;
38693;SDS011;24447;43.460;25.744;2024-03-25T11:26:19;4.82;;;1.77;;
38693;SDS011;24447;43.460;25.744;2024-03-25T11:28:47;0.75;;;0.60;;
38693;SDS011;24447;43.460;25.744;2024-03-25T11:31:14;0.38;;;0.38;;
38693;SDS011;24447;43.460;25.744;2024-03-25T11:33:40;2.55;;;0.68;;
38693;SDS011;24447;43.460;25.744;2024-03-25T11:36:07;1.10;;;0.63;;
38693;SDS011;24447;43.460;25.744;2024-03-25T11:38:33;1.67;;;0.55;;
38693;SDS011;24447;43.460;25.744;2024-03-25T11:40:59;1.48;;;0.93;;
38693;SDS011;24447;43.460;25.744;2024-03-25T11:43:25;7.22;;;4.35;;
38693;SDS011;24447;43.460;25.744;2024-03-25T11:45:52;2.30;;;1.60;;
38693;SDS011;24447;43.460;25.744;2024-03-25T11:48:19;3.83;;;1.80;;
38693;SDS011;24447;43.460;25.744;2024-03-25T11:50:47;1.83;;;1.08;;
38693;SDS011;24447;43.460;25.744;2024-03-25T11:53:13;1.65;;;0.77;;
38693;SDS011;24447;43.460;25.744;2024-03-25T11:55:48;1.65;;;1.10;;
38693;SDS011;24447;43.460;25.744;2024-03-25T11:58:15;4.30;;;1.98;;
38693;SDS011;24447;43.460;25.744;2024-03-25T12:00:44;3.30;;;1.38;;
38693;SDS011;24447;43.460;25.744;2024-03-25T12:03:13;6.72;;;3.28;;
38693;SDS011;24447;43.460;25.744;2024-03-25T12:05:40;1.83;;;1.63;;
38693;SDS011;24447;43.460;25.744;2024-03-25T12:08:09;1.38;;;1.17;;
38693;SDS011;24447;43.460;25.744;2024-03-25T12:10:38;3.38;;;1.63;;
38693;SDS011;24447;43.460;25.744;2024-03-25T12:13:23;1.65;;;0.80;;
38693;SDS011;24447;43.460;25.744;2024-03-25T12:15:50;2.05;;;1.23;;
38693;SDS011;24447;43.460;25.744;2024-03-25T12:18:16;3.30;;;1.15;;
38693;SDS011;24447;43.460;25.744;2024-03-25T12:20:47;2.30;;;1.73;;
38693;SDS011;24447;43.460;25.744;2024-03-25T12:23:14;1.27;;;0.63;;
38693;SDS011;24447;43.460;25.744;2024-03-25T12:25:40;1.25;;;0.93;;
38693;SDS011;24447;43.460;25.744;2024-03-25T12:28:10;1.25;;;1.17;;
38693;SDS011;24447;43.460;25.744;2024-03-25T12:30:49;14.55;;;5.32;;
38693;SDS011;24447;43.460;25.744;2024-03-25T12:33:15;5.82;;;1.38;;
38693;SDS011;24447;43.460;25.744;2024-03-25T12:35:44;2.47;;;1.33;;
38693;SDS011;24447;43.460;25.744;2024-03-25T12:38:21;2.78;;;1.65;;
38693;SDS011;24447;43.460;25.744;2024-03-25T12:40:50;2.05;;;1.02;;
38693;SDS011;24447;43.460;25.744;2024-03-25T12:43:16;2.20;;;1.25;;
38693;SDS011;24447;43.460;25.744;2024-03-25T12:45:42;5.22;;;3.42;;
38693;SDS011;24447;43.460;25.744;2024-03-25T12:48:08;4.03;;;2.20;;
38693;SDS011;24447;43.460;25.744;2024-03-25T12:50:35;1.45;;;1.05;;
38693;SDS011;24447;43.460;25.744;2024-03-25T12:53:01;2.38;;;1.60;;
38693;SDS011;24447;43.460;25.744;2024-03-25T12:55:28;2.05;;;1.15;;
38693;SDS011;24447;43.460;25.744;2024-03-25T12:57:57;1.98;;;0.88;;
38693;SDS011;24447;43.460;25.744;2024-03-25T13:00:23;1.40;;;0.60;;
38693;SDS011;24447;43.460;25.744;2024-03-25T13:02:49;0.90;;;0.52;;
38693;SDS011;24447;43.460;25.744;2024-03-25T13:05:15;0.80;;;0.68;;
38693;SDS011;24447;43.460;25.744;2024-03-25T13:07:42;1.40;;;1.17;;
38693;SDS011;24447;43.460;25.744;2024-03-25T13:10:08;2.33;;;1.08;;
38693;SDS011;24447;43.460;25.744;2024-03-25T13:12:34;2.17;;;1.13;;
38693;SDS011;24447;43.460;25.744;2024-03-25T13:15:00;17.35;;;7.45;;
38693;SDS011;24447;43.460;25.744;2024-03-25T13:17:25;15.82;;;5.43;;
38693;SDS011;24447;43.460;25.744;2024-03-25T13:19:51;12.02;;;4.38;;
38693;SDS011;24447;43.460;25.744;2024-03-25T13:22:17;2.63;;;1.08;;
38693;SDS011;24447;43.460;25.744;2024-03-25T13:24:43;2.80;;;0.70;;
38693;SDS011;24447;43.460;25.744;2024-03-25T13:27:09;5.05;;;1.25;;
38693;SDS011;24447;43.460;25.744;2024-03-25T13:29:35;1.35;;;1.02;;
38693;SDS011;24447;43.460;25.744;2024-03-25T13:32:03;3.67;;;1.00;;
38693;SDS011;24447;43.460;25.744;2024-03-25T13:34:30;5.60;;;2.70;;
38693;SDS011;24447;43.460;25.744;2024-03-25T13:36:56;1.52;;;1.42;;
38693;SDS011;24447;43.460;25.744;2024-03-25T13:39:21;6.32;;;1.88;;
38693;SDS011;24447;43.460;25.744;2024-03-25T13:41:48;5.30;;;1.70;;
38693;SDS011;24447;43.460;25.744;2024-03-25T13:44:13;2.60;;;1.45;;
38693;SDS011;24447;43.460;25.744;2024-03-25T13:46:40;3.92;;;2.10;;
38693;SDS011;24447;43.460;25.744;2024-03-25T13:49:06;3.28;;;1.55;;
38693;SDS011;24447;43.460;25.744;2024-03-25T13:51:33;4.78;;;1.85;;
38693;SDS011;24447;43.460;25.744;2024-03-25T13:53:59;2.05;;;1.42;;
38693;SDS011;24447;43.460;25.744;2024-03-25T13:56:25;8.15;;;1.73;;
38693;SDS011;24447;43.460;25.744;2024-03-25T13:58:51;6.38;;;2.00;;
38693;SDS011;24447;43.460;25.744;2024-03-25T14:01:17;4.18;;;1.65;;
38693;SDS011;24447;43.460;25.744;2024-03-25T14:03:43;5.97;;;2.67;;
38693;SDS011;24447;43.460;25.744;2024-03-25T14:06:09;4.13;;;2.15;;
38693;SDS011;24447;43.460;25.744;2024-03-25T14:08:35;1.65;;;1.27;;
38693;SDS011;24447;43.460;25.744;2024-03-25T14:11:01;5.07;;;2.38;;
38693;SDS011;24447;43.460;25.744;2024-03-25T14:13:28;3.60;;;1.27;;
38693;SDS011;24447;43.460;25.744;2024-03-25T14:15:54;7.10;;;2.38;;
38693;SDS011;24447;43.460;25.744;2024-03-25T14:18:23;6.28;;;2.90;;
38693;SDS011;24447;43.460;25.744;2024-03-25T14:20:51;6.90;;;2.22;;
38693;SDS011;24447;43.460;25.744;2024-03-25T14:23:17;5.50;;;2.58;;
38693;SDS011;24447;43.460;25.744;2024-03-25T14:25:43;9.00;;;2.47;;
38693;SDS011;24447;43.460;25.744;2024-03-25T14:28:09;3.50;;;0.88;;
38693;SDS011;24447;43.460;25.744;2024-03-25T14:30:35;5.22;;;1.20;;